sensor_id;sensor_type;location;lat;lon;timestamp;temperature;humidity
36372;DHT22;22398;51.346;12.372;2023-06-22T00:04:40;21.60;92.50
36372;DHT22;22398;51.346;12.372;2023-06-22T00:09:43;21.50;92.60
36372;DHT22;22398;51.346;12.372;2023-06-22T00:14:46;21.40;93.60
36372;DHT22;22398;51.346;12.372;2023-06-22T00:19:51;21.40;93.80
36372;DHT22;22398;51.346;12.372;2023-06-22T00:24:57;21.30;94.80
36372;DHT22;22398;51.346;12.372;2023-06-22T00:30:00;21.20;95.00
36372;DHT22;22398;51.346;12.372;2023-06-22T00:35:05;21.20;95.10
36372;DHT22;22398;51.346;12.372;2023-06-22T00:40:09;21.20;95.70
36372;DHT22;22398;51.346;12.372;2023-06-22T00:45:14;21.20;95.90
36372;DHT22;22398;51.346;12.372;2023-06-22T00:50:19;21.20;96.20
36372;DHT22;22398;51.346;12.372;2023-06-22T00:55:24;21.00;96.20
36372;DHT22;22398;51.346;12.372;2023-06-22T01:00:29;21.00;96.30
36372;DHT22;22398;51.346;12.372;2023-06-22T01:05:36;20.90;96.50
36372;DHT22;22398;51.346;12.372;2023-06-22T01:10:41;21.00;96.80
36372;DHT22;22398;51.346;12.372;2023-06-22T01:15:45;21.00;97.20
36372;DHT22;22398;51.346;12.372;2023-06-22T01:20:53;20.90;97.50
36372;DHT22;22398;51.346;12.372;2023-06-22T01:25:59;20.70;97.70
36372;DHT22;22398;51.346;12.372;2023-06-22T01:31:06;20.60;97.90
36372;DHT22;22398;51.346;12.372;2023-06-22T01:36:11;20.50;98.40
36372;DHT22;22398;51.346;12.372;2023-06-22T01:41:14;20.50;98.60
36372;DHT22;22398;51.346;12.372;2023-06-22T01:46:22;20.50;98.80
36372;DHT22;22398;51.346;12.372;2023-06-22T01:51:26;20.50;98.90
36372;DHT22;22398;51.346;12.372;2023-06-22T01:56:29;20.50;99.20
36372;DHT22;22398;51.346;12.372;2023-06-22T02:01:35;20.60;99.60
36372;DHT22;22398;51.346;12.372;2023-06-22T02:06:42;20.50;99.80
36372;DHT22;22398;51.346;12.372;2023-06-22T02:11:46;20.30;99.80
36372;DHT22;22398;51.346;12.372;2023-06-22T02:16:51;20.30;99.90
36372;DHT22;22398;51.346;12.372;2023-06-22T02:21:55;20.30;99.90
36372;DHT22;22398;51.346;12.372;2023-06-22T02:26:58;20.20;99.90
36372;DHT22;22398;51.346;12.372;2023-06-22T02:32:03;20.30;99.90
36372;DHT22;22398;51.346;12.372;2023-06-22T02:37:07;20.20;99.90
36372;DHT22;22398;51.346;12.372;2023-06-22T02:42:10;20.20;99.90
36372;DHT22;22398;51.346;12.372;2023-06-22T02:47:15;20.10;99.90
36372;DHT22;22398;51.346;12.372;2023-06-22T02:52:18;20.10;99.90
36372;DHT22;22398;51.346;12.372;2023-06-22T02:57:22;20.00;99.90
36372;DHT22;22398;51.346;12.372;2023-06-22T03:02:27;20.00;99.90
36372;DHT22;22398;51.346;12.372;2023-06-22T03:07:30;19.90;99.90
36372;DHT22;22398;51.346;12.372;2023-06-22T03:12:34;19.90;99.90
36372;DHT22;22398;51.346;12.372;2023-06-22T03:17:40;19.90;99.90
36372;DHT22;22398;51.346;12.372;2023-06-22T03:22:43;19.90;99.90
36372;DHT22;22398;51.346;12.372;2023-06-22T03:27:46;20.00;99.90
36372;DHT22;22398;51.346;12.372;2023-06-22T03:32:51;20.00;99.90
36372;DHT22;22398;51.346;12.372;2023-06-22T03:37:55;20.00;99.90
36372;DHT22;22398;51.346;12.372;2023-06-22T03:42:58;20.10;99.90
36372;DHT22;22398;51.346;12.372;2023-06-22T03:48:05;20.10;99.90
36372;DHT22;22398;51.346;12.372;2023-06-22T03:53:09;20.20;99.90
36372;DHT22;22398;51.346;12.372;2023-06-22T03:58:12;20.20;99.90
36372;DHT22;22398;51.346;12.372;2023-06-22T04:03:17;20.20;99.90
36372;DHT22;22398;51.346;12.372;2023-06-22T04:08:22;20.20;99.90
36372;DHT22;22398;51.346;12.372;2023-06-22T04:13:25;20.50;99.90
36372;DHT22;22398;51.346;12.372;2023-06-22T04:18:30;21.00;99.90
36372;DHT22;22398;51.346;12.372;2023-06-22T04:23:33;21.50;99.90
36372;DHT22;22398;51.346;12.372;2023-06-22T04:28:37;21.80;99.90
36372;DHT22;22398;51.346;12.372;2023-06-22T04:33:41;22.00;99.90
36372;DHT22;22398;51.346;12.372;2023-06-22T04:38:45;22.20;99.90
36372;DHT22;22398;51.346;12.372;2023-06-22T04:43:48;22.40;99.90
36372;DHT22;22398;51.346;12.372;2023-06-22T04:48:57;22.60;99.90
36372;DHT22;22398;51.346;12.372;2023-06-22T04:54:00;22.70;99.90
36372;DHT22;22398;51.346;12.372;2023-06-22T04:59:04;22.90;99.90
36372;DHT22;22398;51.346;12.372;2023-06-22T05:04:09;22.90;99.90
36372;DHT22;22398;51.346;12.372;2023-06-22T05:09:12;22.90;99.90
36372;DHT22;22398;51.346;12.372;2023-06-22T05:14:16;23.00;99.90
36372;DHT22;22398;51.346;12.372;2023-06-22T05:19:21;23.70;99.90
36372;DHT22;22398;51.346;12.372;2023-06-22T05:24:24;24.90;99.90
36372;DHT22;22398;51.346;12.372;2023-06-22T05:29:28;25.10;99.60
36372;DHT22;22398;51.346;12.372;2023-06-22T05:34:32;25.20;98.50
36372;DHT22;22398;51.346;12.372;2023-06-22T05:39:35;24.90;97.80
36372;DHT22;22398;51.346;12.372;2023-06-22T05:44:40;24.80;97.40
36372;DHT22;22398;51.346;12.372;2023-06-22T05:49:44;24.60;97.40
36372;DHT22;22398;51.346;12.372;2023-06-22T05:54:47;24.50;97.40
36372;DHT22;22398;51.346;12.372;2023-06-22T05:59:51;24.70;97.20
36372;DHT22;22398;51.346;12.372;2023-06-22T06:04:57;24.90;97.20
36372;DHT22;22398;51.346;12.372;2023-06-22T06:10:00;25.30;96.60
36372;DHT22;22398;51.346;12.372;2023-06-22T06:15:04;25.70;95.80
36372;DHT22;22398;51.346;12.372;2023-06-22T06:20:13;26.10;94.80
36372;DHT22;22398;51.346;12.372;2023-06-22T06:25:16;26.20;93.80
36372;DHT22;22398;51.346;12.372;2023-06-22T06:30:22;26.60;93.10
36372;DHT22;22398;51.346;12.372;2023-06-22T06:35:27;27.00;91.90
36372;DHT22;22398;51.346;12.372;2023-06-22T06:40:31;27.40;90.50
36372;DHT22;22398;51.346;12.372;2023-06-22T06:45:35;27.60;89.00
36372;DHT22;22398;51.346;12.372;2023-06-22T06:50:40;27.50;86.90
36372;DHT22;22398;51.346;12.372;2023-06-22T06:55:43;27.70;85.90
36372;DHT22;22398;51.346;12.372;2023-06-22T07:00:47;28.30;84.00
36372;DHT22;22398;51.346;12.372;2023-06-22T07:05:52;28.80;81.20
36372;DHT22;22398;51.346;12.372;2023-06-22T07:10:55;28.70;79.00
36372;DHT22;22398;51.346;12.372;2023-06-22T07:15:59;29.10;78.10
36372;DHT22;22398;51.346;12.372;2023-06-22T07:21:04;29.10;77.00
36372;DHT22;22398;51.346;12.372;2023-06-22T07:26:09;29.10;76.00
36372;DHT22;22398;51.346;12.372;2023-06-22T07:31:14;29.30;74.90
36372;DHT22;22398;51.346;12.372;2023-06-22T07:36:18;29.20;73.80
36372;DHT22;22398;51.346;12.372;2023-06-22T07:41:21;29.20;73.00
36372;DHT22;22398;51.346;12.372;2023-06-22T07:46:24;29.30;72.40
36372;DHT22;22398;51.346;12.372;2023-06-22T07:51:29;29.20;71.90
36372;DHT22;22398;51.346;12.372;2023-06-22T07:56:32;29.50;71.60
36372;DHT22;22398;51.346;12.372;2023-06-22T08:01:35;29.90;70.80
36372;DHT22;22398;51.346;12.372;2023-06-22T08:06:40;29.90;70.10
36372;DHT22;22398;51.346;12.372;2023-06-22T08:11:43;30.10;69.70
36372;DHT22;22398;51.346;12.372;2023-06-22T08:16:46;30.30;68.90
36372;DHT22;22398;51.346;12.372;2023-06-22T08:21:50;30.30;68.50
36372;DHT22;22398;51.346;12.372;2023-06-22T08:26:53;30.40;67.90
36372;DHT22;22398;51.346;12.372;2023-06-22T08:31:56;30.30;67.40
36372;DHT22;22398;51.346;12.372;2023-06-22T08:37:01;30.20;67.30
36372;DHT22;22398;51.346;12.372;2023-06-22T08:42:08;30.10;66.90
36372;DHT22;22398;51.346;12.372;2023-06-22T08:47:11;30.20;66.70
36372;DHT22;22398;51.346;12.372;2023-06-22T08:52:16;30.50;66.60
36372;DHT22;22398;51.346;12.372;2023-06-22T08:57:20;30.60;65.90
36372;DHT22;22398;51.346;12.372;2023-06-22T09:02:24;30.70;65.10
36372;DHT22;22398;51.346;12.372;2023-06-22T09:07:29;31.00;64.90
36372;DHT22;22398;51.346;12.372;2023-06-22T09:12:33;31.40;64.50
36372;DHT22;22398;51.346;12.372;2023-06-22T09:17:37;31.80;63.60
36372;DHT22;22398;51.346;12.372;2023-06-22T09:22:42;31.80;62.80
36372;DHT22;22398;51.346;12.372;2023-06-22T09:27:46;31.50;62.30
36372;DHT22;22398;51.346;12.372;2023-06-22T09:32:49;31.50;62.00
36372;DHT22;22398;51.346;12.372;2023-06-22T09:37:55;31.60;61.40
36372;DHT22;22398;51.346;12.372;2023-06-22T09:42:58;31.60;61.10
36372;DHT22;22398;51.346;12.372;2023-06-22T09:48:01;31.80;60.60
36372;DHT22;22398;51.346;12.372;2023-06-22T09:53:06;31.60;60.00
36372;DHT22;22398;51.346;12.372;2023-06-22T09:58:09;31.40;60.40
36372;DHT22;22398;51.346;12.372;2023-06-22T10:03:12;31.80;60.30
36372;DHT22;22398;51.346;12.372;2023-06-22T10:08:17;32.40;59.10
36372;DHT22;22398;51.346;12.372;2023-06-22T10:13:21;33.00;58.50
36372;DHT22;22398;51.346;12.372;2023-06-22T10:18:24;33.10;57.40
36372;DHT22;22398;51.346;12.372;2023-06-22T10:23:28;32.70;57.00
36372;DHT22;22398;51.346;12.372;2023-06-22T10:28:31;32.60;56.50
36372;DHT22;22398;51.346;12.372;2023-06-22T10:33:35;32.40;55.60
36372;DHT22;22398;51.346;12.372;2023-06-22T10:38:39;32.30;55.50
36372;DHT22;22398;51.346;12.372;2023-06-22T10:43:42;32.20;55.80
36372;DHT22;22398;51.346;12.372;2023-06-22T10:48:46;32.40;55.90
36372;DHT22;22398;51.346;12.372;2023-06-22T10:53:51;32.60;55.80
36372;DHT22;22398;51.346;12.372;2023-06-22T10:58:54;32.40;55.50
36372;DHT22;22398;51.346;12.372;2023-06-22T11:03:58;32.50;55.60
36372;DHT22;22398;51.346;12.372;2023-06-22T11:09:03;32.30;55.30
36372;DHT22;22398;51.346;12.372;2023-06-22T11:14:25;32.30;55.40
36372;DHT22;22398;51.346;12.372;2023-06-22T11:19:28;32.40;55.20
36372;DHT22;22398;51.346;12.372;2023-06-22T11:24:33;32.20;55.00
36372;DHT22;22398;51.346;12.372;2023-06-22T11:29:36;32.30;55.10
36372;DHT22;22398;51.346;12.372;2023-06-22T11:34:41;32.30;55.00
36372;DHT22;22398;51.346;12.372;2023-06-22T11:39:46;32.50;55.30
36372;DHT22;22398;51.346;12.372;2023-06-22T11:44:53;32.70;55.00
36372;DHT22;22398;51.346;12.372;2023-06-22T11:49:59;32.80;54.90
36372;DHT22;22398;51.346;12.372;2023-06-22T11:55:04;32.90;54.90
36372;DHT22;22398;51.346;12.372;2023-06-22T12:00:09;32.80;54.80
36372;DHT22;22398;51.346;12.372;2023-06-22T12:05:19;32.60;54.90
36372;DHT22;22398;51.346;12.372;2023-06-22T12:10:25;32.60;55.00
36372;DHT22;22398;51.346;12.372;2023-06-22T12:15:30;32.90;54.90
36372;DHT22;22398;51.346;12.372;2023-06-22T12:20:34;32.90;54.70
36372;DHT22;22398;51.346;12.372;2023-06-22T12:25:38;32.70;54.90
36372;DHT22;22398;51.346;12.372;2023-06-22T12:30:41;33.00;54.80
36372;DHT22;22398;51.346;12.372;2023-06-22T12:35:45;33.20;54.50
36372;DHT22;22398;51.346;12.372;2023-06-22T12:40:52;33.40;54.30
36372;DHT22;22398;51.346;12.372;2023-06-22T12:45:55;33.30;54.00
36372;DHT22;22398;51.346;12.372;2023-06-22T12:50:58;32.90;54.10
36372;DHT22;22398;51.346;12.372;2023-06-22T12:56:03;32.80;54.30
36372;DHT22;22398;51.346;12.372;2023-06-22T13:01:06;32.90;54.30
36372;DHT22;22398;51.346;12.372;2023-06-22T13:06:09;33.10;54.40
36372;DHT22;22398;51.346;12.372;2023-06-22T13:11:19;33.20;54.70
36372;DHT22;22398;51.346;12.372;2023-06-22T13:16:23;33.00;54.00
36372;DHT22;22398;51.346;12.372;2023-06-22T13:21:26;32.90;54.30
36372;DHT22;22398;51.346;12.372;2023-06-22T13:26:31;32.90;54.40
36372;DHT22;22398;51.346;12.372;2023-06-22T13:31:35;32.90;54.20
36372;DHT22;22398;51.346;12.372;2023-06-22T13:36:38;33.00;54.10
36372;DHT22;22398;51.346;12.372;2023-06-22T13:41:42;33.10;54.10
36372;DHT22;22398;51.346;12.372;2023-06-22T13:46:45;32.80;54.30
36372;DHT22;22398;51.346;12.372;2023-06-22T13:51:49;32.90;54.40
36372;DHT22;22398;51.346;12.372;2023-06-22T13:56:54;33.00;54.20
36372;DHT22;22398;51.346;12.372;2023-06-22T14:01:58;33.10;54.30
36372;DHT22;22398;51.346;12.372;2023-06-22T14:07:01;33.20;54.50
36372;DHT22;22398;51.346;12.372;2023-06-22T14:12:06;33.60;54.10
36372;DHT22;22398;51.346;12.372;2023-06-22T14:17:10;33.80;53.90
36372;DHT22;22398;51.346;12.372;2023-06-22T14:22:13;33.90;53.60
36372;DHT22;22398;51.346;12.372;2023-06-22T14:27:17;33.80;53.60
36372;DHT22;22398;51.346;12.372;2023-06-22T14:32:20;33.80;53.20
36372;DHT22;22398;51.346;12.372;2023-06-22T14:37:24;33.80;53.30
36372;DHT22;22398;51.346;12.372;2023-06-22T14:42:28;33.70;53.30
36372;DHT22;22398;51.346;12.372;2023-06-22T14:47:32;33.60;53.40
36372;DHT22;22398;51.346;12.372;2023-06-22T14:52:36;33.50;53.60
36372;DHT22;22398;51.346;12.372;2023-06-22T14:57:41;34.10;53.60
36372;DHT22;22398;51.346;12.372;2023-06-22T15:02:44;34.10;53.20
36372;DHT22;22398;51.346;12.372;2023-06-22T15:07:48;34.20;53.10
36372;DHT22;22398;51.346;12.372;2023-06-22T15:12:52;34.00;53.00
36372;DHT22;22398;51.346;12.372;2023-06-22T15:17:56;34.30;53.00
36372;DHT22;22398;51.346;12.372;2023-06-22T15:22:59;34.50;52.60
36372;DHT22;22398;51.346;12.372;2023-06-22T15:28:04;34.30;52.40
36372;DHT22;22398;51.346;12.372;2023-06-22T15:33:08;34.10;52.60
36372;DHT22;22398;51.346;12.372;2023-06-22T15:38:11;34.10;52.70
36372;DHT22;22398;51.346;12.372;2023-06-22T15:43:16;34.10;52.80
36372;DHT22;22398;51.346;12.372;2023-06-22T15:48:20;34.10;52.60
36372;DHT22;22398;51.346;12.372;2023-06-22T15:53:23;34.00;52.70
36372;DHT22;22398;51.346;12.372;2023-06-22T15:58:28;34.10;52.80
36372;DHT22;22398;51.346;12.372;2023-06-22T16:03:32;34.00;52.80
36372;DHT22;22398;51.346;12.372;2023-06-22T16:08:36;34.30;52.50
36372;DHT22;22398;51.346;12.372;2023-06-22T16:13:40;34.20;52.40
36372;DHT22;22398;51.346;12.372;2023-06-22T16:18:44;34.00;52.60
36372;DHT22;22398;51.346;12.372;2023-06-22T16:23:47;33.60;52.80
36372;DHT22;22398;51.346;12.372;2023-06-22T16:28:52;33.30;53.00
36372;DHT22;22398;51.346;12.372;2023-06-22T16:33:55;33.20;53.40
36372;DHT22;22398;51.346;12.372;2023-06-22T16:38:58;33.00;53.40
36372;DHT22;22398;51.346;12.372;2023-06-22T16:44:02;32.80;53.70
36372;DHT22;22398;51.346;12.372;2023-06-22T16:49:08;32.50;54.00
36372;DHT22;22398;51.346;12.372;2023-06-22T16:54:11;32.30;54.30
36372;DHT22;22398;51.346;12.372;2023-06-22T16:59:16;32.00;54.60
36372;DHT22;22398;51.346;12.372;2023-06-22T17:04:20;31.80;54.90
36372;DHT22;22398;51.346;12.372;2023-06-22T17:09:24;31.60;55.10
36372;DHT22;22398;51.346;12.372;2023-06-22T17:14:29;31.40;55.40
36372;DHT22;22398;51.346;12.372;2023-06-22T17:19:32;31.30;55.60
36372;DHT22;22398;51.346;12.372;2023-06-22T17:24:35;31.20;55.90
36372;DHT22;22398;51.346;12.372;2023-06-22T17:29:40;31.30;56.20
36372;DHT22;22398;51.346;12.372;2023-06-22T17:34:43;31.30;56.40
36372;DHT22;22398;51.346;12.372;2023-06-22T17:39:48;31.30;56.50
36372;DHT22;22398;51.346;12.372;2023-06-22T17:45:01;31.30;56.70
36372;DHT22;22398;51.346;12.372;2023-06-22T17:50:04;31.10;56.90
36372;DHT22;22398;51.346;12.372;2023-06-22T17:55:08;31.10;57.20
36372;DHT22;22398;51.346;12.372;2023-06-22T18:00:15;30.90;57.50
36372;DHT22;22398;51.346;12.372;2023-06-22T18:05:27;30.70;57.80
36372;DHT22;22398;51.346;12.372;2023-06-22T18:10:32;30.60;58.30
36372;DHT22;22398;51.346;12.372;2023-06-22T18:15:37;30.30;58.60
36372;DHT22;22398;51.346;12.372;2023-06-22T18:20:40;30.20;59.10
36372;DHT22;22398;51.346;12.372;2023-06-22T18:25:45;30.00;59.60
36372;DHT22;22398;51.346;12.372;2023-06-22T18:30:50;29.90;60.00
36372;DHT22;22398;51.346;12.372;2023-06-22T18:35:54;29.70;60.30
36372;DHT22;22398;51.346;12.372;2023-06-22T18:40:58;29.60;60.80
36372;DHT22;22398;51.346;12.372;2023-06-22T18:51:21;29.40;61.60
36372;DHT22;22398;51.346;12.372;2023-06-22T18:56:24;29.20;61.80
36372;DHT22;22398;51.346;12.372;2023-06-22T19:01:27;29.10;62.20
36372;DHT22;22398;51.346;12.372;2023-06-22T19:17:14;28.80;63.20
36372;DHT22;22398;51.346;12.372;2023-06-22T19:22:23;28.60;63.50
36372;DHT22;22398;51.346;12.372;2023-06-22T19:27:29;28.50;63.90
36372;DHT22;22398;51.346;12.372;2023-06-22T19:32:34;28.40;64.30
36372;DHT22;22398;51.346;12.372;2023-06-22T19:37:37;28.30;64.60
36372;DHT22;22398;51.346;12.372;2023-06-22T19:42:43;28.20;64.90
36372;DHT22;22398;51.346;12.372;2023-06-22T19:47:48;28.10;65.20
36372;DHT22;22398;51.346;12.372;2023-06-22T19:52:53;28.10;65.60
36372;DHT22;22398;51.346;12.372;2023-06-22T19:57:57;28.10;66.10
36372;DHT22;22398;51.346;12.372;2023-06-22T20:03:01;28.00;66.40
36372;DHT22;22398;51.346;12.372;2023-06-22T20:08:05;27.80;67.00
36372;DHT22;22398;51.346;12.372;2023-06-22T20:13:14;27.70;67.50
36372;DHT22;22398;51.346;12.372;2023-06-22T20:18:21;27.40;68.50
36372;DHT22;22398;51.346;12.372;2023-06-22T20:23:27;27.30;69.00
36372;DHT22;22398;51.346;12.372;2023-06-22T20:28:30;27.10;70.00
36372;DHT22;22398;51.346;12.372;2023-06-22T20:33:37;27.00;70.80
36372;DHT22;22398;51.346;12.372;2023-06-22T20:38:41;26.30;70.90
36372;DHT22;22398;51.346;12.372;2023-06-22T20:43:51;25.10;70.40
36372;DHT22;22398;51.346;12.372;2023-06-22T20:48:56;22.10;77.00
36372;DHT22;22398;51.346;12.372;2023-06-22T20:54:00;21.70;79.90
36372;DHT22;22398;51.346;12.372;2023-06-22T20:59:05;21.30;85.70
36372;DHT22;22398;51.346;12.372;2023-06-22T21:04:10;21.30;88.60
36372;DHT22;22398;51.346;12.372;2023-06-22T21:09:14;20.90;95.90
36372;DHT22;22398;51.346;12.372;2023-06-22T21:14:17;20.50;99.90
36372;DHT22;22398;51.346;12.372;2023-06-22T21:19:23;19.90;99.90
36372;DHT22;22398;51.346;12.372;2023-06-22T21:24:26;19.60;99.90
36372;DHT22;22398;51.346;12.372;2023-06-22T21:29:30;19.10;99.90
36372;DHT22;22398;51.346;12.372;2023-06-22T21:34:34;18.90;99.90
36372;DHT22;22398;51.346;12.372;2023-06-22T21:39:37;18.90;99.90
36372;DHT22;22398;51.346;12.372;2023-06-22T21:44:40;18.90;99.90
36372;DHT22;22398;51.346;12.372;2023-06-22T21:49:45;18.90;99.90
36372;DHT22;22398;51.346;12.372;2023-06-22T21:54:48;18.90;99.90
36372;DHT22;22398;51.346;12.372;2023-06-22T21:59:51;19.00;99.90
36372;DHT22;22398;51.346;12.372;2023-06-22T22:04:56;19.00;99.90
36372;DHT22;22398;51.346;12.372;2023-06-22T22:09:59;19.00;99.90
36372;DHT22;22398;51.346;12.372;2023-06-22T22:15:02;19.10;99.90
36372;DHT22;22398;51.346;12.372;2023-06-22T22:20:10;19.20;99.90
36372;DHT22;22398;51.346;12.372;2023-06-22T22:25:14;19.20;99.90
36372;DHT22;22398;51.346;12.372;2023-06-22T22:30:18;19.20;99.90
36372;DHT22;22398;51.346;12.372;2023-06-22T22:35:23;18.40;99.90
36372;DHT22;22398;51.346;12.372;2023-06-22T22:40:26;19.00;99.90
36372;DHT22;22398;51.346;12.372;2023-06-22T22:45:30;19.00;99.90
36372;DHT22;22398;51.346;12.372;2023-06-22T22:50:35;18.90;99.90
36372;DHT22;22398;51.346;12.372;2023-06-22T22:55:39;19.00;99.90
36372;DHT22;22398;51.346;12.372;2023-06-22T23:00:42;19.00;99.90
36372;DHT22;22398;51.346;12.372;2023-06-22T23:05:47;19.10;99.90
36372;DHT22;22398;51.346;12.372;2023-06-22T23:10:53;19.10;99.90
36372;DHT22;22398;51.346;12.372;2023-06-22T23:15:57;19.10;99.90
36372;DHT22;22398;51.346;12.372;2023-06-22T23:21:02;19.00;99.90
36372;DHT22;22398;51.346;12.372;2023-06-22T23:26:07;19.00;99.90
36372;DHT22;22398;51.346;12.372;2023-06-22T23:31:10;18.90;99.90
36372;DHT22;22398;51.346;12.372;2023-06-22T23:36:15;18.90;99.90
36372;DHT22;22398;51.346;12.372;2023-06-22T23:41:19;18.90;99.90
36372;DHT22;22398;51.346;12.372;2023-06-22T23:46:23;19.10;99.90
36372;DHT22;22398;51.346;12.372;2023-06-22T23:51:28;19.30;99.90
36372;DHT22;22398;51.346;12.372;2023-06-22T23:56:31;19.20;99.90
